Time;durP1;ratioP1;P1;durP2;ratioP2;P2;SDS_P1;SDS_P2;PMS_P1;PMS_P2;Temp;Humidity;BMP_temperature;BMP_pressure;BME280_temperature;BME280_humidity;BME280_pressure;Samples;Min_cycle;Max_cycle;Signal;HPM_P1;HPM_P2
2022/08/14 00:00:50;;;;;;;9.00;7.70;;;24.50;99.90;;;;;;5076619;28;20919;-55
2022/08/14 00:03:21;;;;;;;8.57;7.70;;;24.50;99.90;;;;;;5076180;28;20467;-51
2022/08/14 00:05:48;;;;;;;8.60;6.97;;;24.40;99.90;;;;;;5076388;28;20572;-54
2022/08/14 00:08:16;;;;;;;23.83;16.40;;;24.40;99.90;;;;;;5076172;28;20454;-54
2022/08/14 00:10:47;;;;;;;7.53;6.83;;;24.40;99.90;;;;;;5075950;28;20452;-51
2022/08/14 00:13:15;;;;;;;10.47;7.47;;;24.30;99.90;;;;;;5076435;28;20511;-52
2022/08/14 00:15:45;;;;;;;10.10;7.17;;;24.30;99.90;;;;;;5076620;28;20919;-51
2022/08/14 00:18:13;;;;;;;13.93;8.07;;;24.20;99.90;;;;;;5077308;28;20476;-49
2022/08/14 00:20:42;;;;;;;7.90;6.90;;;24.20;99.90;;;;;;5077830;28;20472;-55
2022/08/14 00:23:11;;;;;;;9.30;6.67;;;24.20;99.90;;;;;;5078131;28;20442;-51
2022/08/14 00:25:39;;;;;;;8.67;7.67;;;24.10;99.90;;;;;;5077755;28;20485;-56
2022/08/14 00:28:09;;;;;;;10.50;6.70;;;24.10;99.90;;;;;;5078107;28;20439;-56
2022/08/14 00:30:36;;;;;;;12.43;7.30;;;24.10;99.90;;;;;;5077157;28;20949;-57
2022/08/14 00:33:03;;;;;;;9.80;6.97;;;24.10;99.90;;;;;;5077796;28;20450;-51
2022/08/14 00:35:30;;;;;;;8.63;7.70;;;24.00;99.90;;;;;;5077319;28;20442;-54
2022/08/14 00:37:58;;;;;;;7.80;7.10;;;24.00;99.90;;;;;;5077309;28;20435;-54
2022/08/14 00:40:25;;;;;;;7.80;7.00;;;23.90;99.90;;;;;;5076774;28;20461;-53
2022/08/14 00:42:54;;;;;;;6.70;6.10;;;23.90;99.90;;;;;;5075969;28;20894;-55
2022/08/14 00:45:21;;;;;;;7.13;6.47;;;23.80;99.90;;;;;;5075646;28;20462;-55
2022/08/14 00:47:48;;;;;;;6.73;6.13;;;23.80;99.90;;;;;;5075733;28;20482;-55
2022/08/14 00:50:18;;;;;;;9.47;7.67;;;23.80;99.90;;;;;;5075596;28;20465;-55
2022/08/14 00:52:45;;;;;;;8.87;7.70;;;23.80;99.90;;;;;;5076113;28;20442;-54
2022/08/14 00:55:13;;;;;;;7.67;6.87;;;23.70;99.90;;;;;;5075877;28;20566;-54
2022/08/14 00:57:41;;;;;;;8.47;7.57;;;23.70;99.90;;;;;;5075881;28;20537;-53
2022/08/14 01:00:13;;;;;;;8.57;7.77;;;23.70;99.90;;;;;;5076091;28;20470;-55
2022/08/14 01:02:42;;;;;;;8.30;7.50;;;23.70;99.90;;;;;;5075964;28;20422;-55
2022/08/14 01:05:22;;;;;;;8.10;7.40;;;23.60;99.90;;;;;;5077429;28;21026;-55
2022/08/14 01:07:56;;;;;;;9.37;7.77;;;23.60;99.90;;;;;;5079895;28;20470;-55
2022/08/14 01:10:49;;;;;;;8.07;7.27;;;23.60;99.90;;;;;;5079171;28;20509;-53
2022/08/14 01:13:15;;;;;;;8.70;7.87;;;23.60;99.90;;;;;;5079423;28;20507;-55
2022/08/14 01:15:43;;;;;;;8.80;8.00;;;23.60;99.90;;;;;;5079469;28;20474;-53
2022/08/14 01:21:11;;;;;;;8.57;7.20;;;23.60;99.90;;;;;;5079646;28;20468;-55
2022/08/14 01:23:45;;;;;;;7.90;7.20;;;23.60;99.90;;;;;;5079671;28;20434;-54
2022/08/14 01:26:14;;;;;;;9.20;8.30;;;23.60;99.90;;;;;;5079435;28;20466;-54
2022/08/14 01:28:43;;;;;;;10.60;7.50;;;23.60;99.90;;;;;;5079632;28;20554;-55
2022/08/14 01:31:12;;;;;;;8.60;7.27;;;23.60;99.90;;;;;;5079681;28;20939;-54
2022/08/14 01:33:43;;;;;;;9.90;7.03;;;23.60;99.90;;;;;;5079288;28;20454;-53
2022/08/14 01:36:11;;;;;;;8.40;7.60;;;23.60;99.90;;;;;;5079306;28;20526;-54
2022/08/14 01:38:41;;;;;;;8.60;7.80;;;23.60;99.90;;;;;;5080209;28;20476;-51
2022/08/14 01:41:10;;;;;;;9.40;8.50;;;23.70;99.90;;;;;;5080626;28;20450;-56
2022/08/14 01:43:48;;;;;;;8.90;8.10;;;23.70;99.90;;;;;;5080378;28;20446;-53
2022/08/14 01:46:16;;;;;;;9.47;8.27;;;23.70;99.90;;;;;;5079363;28;20495;-55
2022/08/14 01:48:44;;;;;;;8.10;7.40;;;23.70;99.90;;;;;;5079203;28;20484;-54
2022/08/14 01:51:12;;;;;;;8.00;7.07;;;23.70;99.90;;;;;;5078859;28;20454;-52
2022/08/14 01:53:42;;;;;;;8.13;7.10;;;23.60;99.90;;;;;;5078816;28;20454;-54
2022/08/14 01:56:10;;;;;;;8.77;7.97;;;23.60;99.90;;;;;;5079423;28;20455;-54
2022/08/14 01:58:37;;;;;;;9.13;7.47;;;23.70;99.90;;;;;;5078949;28;20990;-53
2022/08/14 02:01:05;;;;;;;8.33;7.50;;;23.60;99.90;;;;;;5078797;28;20463;-48
2022/08/14 02:03:39;;;;;;;13.93;8.90;;;23.70;99.90;;;;;;5078483;28;20490;-52
2022/08/14 02:06:07;;;;;;;10.40;8.60;;;23.60;99.90;;;;;;5078696;28;20427;-50
2022/08/14 02:08:36;;;;;;;10.93;8.73;;;23.60;99.90;;;;;;5078688;28;20453;-50
2022/08/14 02:11:22;;;;;;;9.70;8.70;;;23.60;99.90;;;;;;5078512;28;20450;-54
2022/08/14 02:13:53;;;;;;;10.40;7.73;;;23.60;99.90;;;;;;5078853;28;20462;-50
2022/08/14 02:16:24;;;;;;;8.73;7.60;;;23.60;99.90;;;;;;5078606;28;20514;-53
2022/08/14 02:18:51;;;;;;;9.77;6.70;;;23.60;99.90;;;;;;5079365;28;20438;-54
2022/08/14 02:21:18;;;;;;;8.93;7.87;;;23.50;99.90;;;;;;5079356;28;20477;-54
2022/08/14 02:23:46;;;;;;;8.73;7.93;;;23.50;99.90;;;;;;5078980;28;20453;-53
2022/08/14 02:26:22;;;;;;;9.80;8.63;;;23.50;99.90;;;;;;5079428;28;20447;-54
2022/08/14 02:28:51;;;;;;;8.30;7.50;;;23.50;99.90;;;;;;5079154;28;20442;-53
2022/08/14 02:31:19;;;;;;;10.20;8.27;;;23.50;99.90;;;;;;5079144;28;20581;-53
2022/08/14 02:33:46;;;;;;;9.27;7.90;;;23.50;99.90;;;;;;5078570;28;20524;-54
2022/08/14 02:36:14;;;;;;;14.20;7.60;;;23.50;99.90;;;;;;5078398;28;20466;-52
2022/08/14 02:38:41;;;;;;;7.93;7.13;;;23.50;99.90;;;;;;5077815;28;20446;-53
2022/08/14 02:41:13;;;;;;;8.50;7.70;;;23.50;99.90;;;;;;5078003;28;20462;-55
2022/08/14 02:43:41;;;;;;;8.40;7.60;;;23.50;99.90;;;;;;5078193;28;20438;-53
2022/08/14 02:46:10;;;;;;;8.30;7.50;;;23.50;99.90;;;;;;5077963;28;20466;-53
2022/08/14 02:48:39;;;;;;;8.37;7.60;;;23.50;99.90;;;;;;5077836;28;20485;-53
2022/08/14 02:51:09;;;;;;;7.97;7.27;;;23.50;99.90;;;;;;5077723;28;20464;-55
2022/08/14 02:53:39;;;;;;;8.90;7.33;;;23.40;99.90;;;;;;5078365;28;20514;-52
2022/08/14 02:56:07;;;;;;;9.37;8.00;;;23.40;99.90;;;;;;5078943;28;20934;-51
2022/08/14 02:58:38;;;;;;;9.20;8.30;;;23.40;99.90;;;;;;5079567;28;20533;-56
2022/08/14 03:01:08;;;;;;;11.77;8.47;;;23.50;99.90;;;;;;5079730;28;20506;-53
2022/08/14 03:03:38;;;;;;;11.20;8.43;;;23.50;99.90;;;;;;5078855;28;20454;-54
2022/08/14 03:06:06;;;;;;;8.77;7.87;;;23.50;99.90;;;;;;5077749;28;20474;-51
2022/08/14 03:08:33;;;;;;;9.00;8.20;;;23.50;99.90;;;;;;5077637;28;20474;-54
2022/08/14 03:11:06;;;;;;;8.30;7.50;;;23.50;99.90;;;;;;5077352;28;20515;-55
2022/08/14 03:13:33;;;;;;;8.93;8.00;;;23.50;99.90;;;;;;5077780;28;20431;-55
2022/08/14 03:16:00;;;;;;;9.00;8.20;;;23.50;99.90;;;;;;5077772;28;20533;-56
2022/08/14 03:18:28;;;;;;;10.40;9.20;;;23.50;99.90;;;;;;5077300;28;20448;-53
2022/08/14 03:20:58;;;;;;;9.47;8.60;;;23.50;99.90;;;;;;5077258;28;20470;-53
2022/08/14 03:23:25;;;;;;;9.47;7.83;;;23.40;99.90;;;;;;5077320;28;20451;-52
2022/08/14 03:25:52;;;;;;;13.07;9.17;;;23.50;99.90;;;;;;5077224;28;20481;-55
2022/08/14 03:28:23;;;;;;;8.63;7.87;;;23.40;99.90;;;;;;5076764;28;20497;-53
2022/08/14 03:30:50;;;;;;;9.17;8.27;;;23.40;99.90;;;;;;5077438;28;20513;-53
2022/08/14 03:33:17;;;;;;;9.73;8.83;;;23.40;99.90;;;;;;5076920;28;20767;-55
2022/08/14 03:35:45;;;;;;;9.10;8.20;;;23.30;99.90;;;;;;5077653;28;20462;-55
2022/08/14 03:38:15;;;;;;;8.87;8.07;;;23.40;99.90;;;;;;5077387;28;20471;-53
2022/08/14 03:40:43;;;;;;;9.07;7.53;;;23.40;99.90;;;;;;5076745;28;20510;-52
2022/08/14 03:43:11;;;;;;;10.70;8.20;;;23.30;99.90;;;;;;5076682;28;20438;-53
2022/08/14 03:45:40;;;;;;;8.70;7.80;;;23.30;99.90;;;;;;5076954;28;20470;-51
2022/08/14 03:48:14;;;;;;;11.70;8.47;;;23.30;99.90;;;;;;5076740;28;20478;-53
2022/08/14 03:50:41;;;;;;;9.53;8.57;;;23.30;99.90;;;;;;5076980;28;20517;-51
2022/08/14 03:53:11;;;;;;;9.20;8.33;;;23.20;99.90;;;;;;5076733;28;20883;-55
2022/08/14 03:55:38;;;;;;;8.57;7.77;;;23.20;99.90;;;;;;5077139;28;20462;-53
2022/08/14 03:58:06;;;;;;;10.40;9.20;;;23.30;99.90;;;;;;5076778;28;21004;-53
2022/08/14 04:00:34;;;;;;;10.20;8.17;;;23.30;99.90;;;;;;5076716;28;20561;-55
2022/08/14 04:03:01;;;;;;;9.63;8.73;;;23.20;99.90;;;;;;5076728;28;20470;-55
2022/08/14 04:05:28;;;;;;;10.47;8.27;;;23.20;99.90;;;;;;5076438;28;20534;-53
2022/08/14 04:07:55;;;;;;;8.67;7.87;;;23.20;99.90;;;;;;5076864;28;20470;-54
2022/08/14 04:10:23;;;;;;;10.27;9.37;;;23.20;99.90;;;;;;5076784;28;20506;-54
2022/08/14 04:12:50;;;;;;;9.23;8.40;;;23.10;99.90;;;;;;5077327;28;20445;-54
2022/08/14 04:15:20;;;;;;;9.43;8.40;;;23.10;99.90;;;;;;5077695;28;20542;-55
2022/08/14 04:17:47;;;;;;;9.90;8.50;;;23.20;99.90;;;;;;5078356;28;20462;-58
2022/08/14 04:20:14;;;;;;;9.20;8.40;;;23.10;99.90;;;;;;5077996;28;20981;-54
2022/08/14 04:22:44;;;;;;;9.43;8.53;;;23.10;99.90;;;;;;5077785;28;20443;-54
2022/08/14 04:25:11;;;;;;;10.17;9.17;;;23.20;99.90;;;;;;5076885;28;20441;-54
2022/08/14 04:27:40;;;;;;;9.47;8.47;;;23.20;99.90;;;;;;5076415;28;20478;-50
2022/08/14 04:30:08;;;;;;;10.33;9.30;;;23.20;99.90;;;;;;5076478;28;20469;-54
2022/08/14 04:32:37;;;;;;;11.50;8.90;;;23.30;99.90;;;;;;5076763;28;20438;-55
2022/08/14 04:35:04;;;;;;;7.93;7.13;;;23.20;99.90;;;;;;5077108;28;20472;-50
2022/08/14 04:45:46;;;;;;;11.20;8.80;;;23.30;99.90;;;;;;5080810;28;20507;-50
2022/08/14 04:48:15;;;;;;;12.50;8.57;;;23.30;99.90;;;;;;5080391;28;20513;-52
2022/08/14 04:50:44;;;;;;;9.63;8.70;;;23.40;99.90;;;;;;5080322;28;20512;-53
2022/08/14 04:53:14;;;;;;;10.17;8.90;;;23.40;99.90;;;;;;5080236;28;20454;-54
2022/08/14 04:55:43;;;;;;;8.87;7.97;;;23.40;99.90;;;;;;5080399;28;20449;-52
2022/08/14 04:58:12;;;;;;;8.23;7.43;;;23.50;99.90;;;;;;5080565;28;20438;-54
2022/08/14 05:00:39;;;;;;;12.80;7.60;;;23.50;99.90;;;;;;5080140;28;20526;-52
2022/08/14 05:03:06;;;;;;;9.47;8.47;;;23.50;99.90;;;;;;5080340;28;20499;-54
2022/08/14 05:05:34;;;;;;;9.47;8.57;;;23.60;99.90;;;;;;5079970;28;20902;-51
2022/08/14 05:08:07;;;;;;;9.20;8.33;;;23.70;99.90;;;;;;5080114;28;20568;-55
2022/08/14 05:10:35;;;;;;;9.83;8.47;;;23.70;99.90;;;;;;5080191;28;20537;-55
2022/08/14 05:13:04;;;;;;;9.90;8.77;;;23.70;99.90;;;;;;5079816;28;20438;-53
2022/08/14 05:15:35;;;;;;;10.27;9.17;;;23.80;99.90;;;;;;5079787;28;20453;-55
2022/08/14 05:18:03;;;;;;;9.57;8.60;;;23.80;99.90;;;;;;5079923;28;20427;-54
2022/08/14 05:20:31;;;;;;;10.43;8.27;;;23.80;99.90;;;;;;5080464;28;20489;-54
2022/08/14 05:22:59;;;;;;;8.77;7.87;;;23.90;99.90;;;;;;5080645;28;20468;-59
2022/08/14 05:25:26;;;;;;;9.63;8.73;;;24.00;99.90;;;;;;5080853;28;20926;-54
2022/08/14 05:27:53;;;;;;;8.87;8.07;;;24.00;99.90;;;;;;5079699;28;20482;-54
2022/08/14 05:30:20;;;;;;;10.47;8.63;;;24.10;99.90;;;;;;5079696;28;20456;-53
2022/08/14 05:32:48;;;;;;;9.90;8.67;;;24.20;99.90;;;;;;5079625;28;20470;-55
2022/08/14 05:35:14;;;;;;;8.90;8.10;;;24.20;99.90;;;;;;5079639;28;20454;-55
2022/08/14 05:37:41;;;;;;;9.43;8.40;;;24.30;99.90;;;;;;5080953;28;20492;-53
2022/08/14 05:40:09;;;;;;;10.50;9.40;;;24.40;99.90;;;;;;5081240;28;20510;-55
2022/08/14 05:42:37;;;;;;;10.40;8.70;;;24.40;99.90;;;;;;5080683;28;20529;-54
2022/08/14 05:45:06;;;;;;;9.07;8.17;;;24.50;99.90;;;;;;5080644;28;20454;-54
2022/08/14 05:47:41;;;;;;;10.83;9.27;;;24.50;99.90;;;;;;5079679;28;20485;-54
2022/08/14 05:50:11;;;;;;;10.07;9.17;;;24.60;99.90;;;;;;5079432;28;20496;-53
2022/08/14 05:52:39;;;;;;;8.90;8.00;;;24.50;99.90;;;;;;5079167;28;20470;-54
2022/08/14 05:55:08;;;;;;;9.03;8.00;;;24.50;99.90;;;;;;5078954;28;20454;-57
2022/08/14 05:57:48;;;;;;;9.63;8.67;;;24.60;99.90;;;;;;5078935;28;20466;-51
2022/08/14 06:00:17;;;;;;;8.93;7.97;;;24.70;99.90;;;;;;5078714;28;20426;-55
2022/08/14 06:02:44;;;;;;;10.40;9.30;;;24.70;99.90;;;;;;5079007;28;20545;-50
2022/08/14 06:05:12;;;;;;;9.43;8.60;;;24.80;99.90;;;;;;5078806;28;20442;-50
2022/08/14 06:07:39;;;;;;;9.60;8.70;;;24.80;99.90;;;;;;5080352;28;20490;-60
2022/08/14 06:10:07;;;;;;;10.00;9.10;;;24.90;99.90;;;;;;5081659;28;20446;-61
2022/08/14 06:12:34;;;;;;;9.53;8.63;;;24.90;99.90;;;;;;5081042;28;20467;-61
2022/08/14 06:15:02;;;;;;;8.97;8.00;;;24.90;99.90;;;;;;5081343;28;20473;-61
2022/08/14 06:17:28;;;;;;;10.20;9.10;;;25.00;99.90;;;;;;5081392;28;20550;-61
2022/08/14 06:19:56;;;;;;;12.93;9.27;;;25.00;99.90;;;;;;5081120;28;20439;-63
2022/08/14 06:22:24;;;;;;;9.90;8.97;;;25.00;99.90;;;;;;5081322;28;20470;-59
2022/08/14 06:24:51;;;;;;;8.67;7.87;;;25.10;99.90;;;;;;5081283;28;20946;-60
2022/08/14 06:27:18;;;;;;;10.03;8.77;;;25.10;99.90;;;;;;5080840;28;20474;-65
2022/08/14 06:29:45;;;;;;;10.17;9.00;;;25.10;99.90;;;;;;5081253;28;20478;-63
2022/08/14 06:32:12;;;;;;;9.60;8.60;;;25.10;99.90;;;;;;5081367;28;20470;-60
2022/08/14 06:34:40;;;;;;;12.37;9.67;;;25.10;99.90;;;;;;5081089;28;20457;-63
2022/08/14 06:37:07;;;;;;;9.17;8.37;;;25.20;99.90;;;;;;5081069;28;20574;-60
2022/08/14 06:39:35;;;;;;;11.50;10.40;;;25.20;99.90;;;;;;5080811;28;20442;-61
2022/08/14 06:42:02;;;;;;;10.37;8.70;;;25.30;99.90;;;;;;5080337;28;20470;-59
2022/08/14 06:44:29;;;;;;;9.30;7.40;;;25.30;99.90;;;;;;5079715;28;20474;-59
2022/08/14 06:46:56;;;;;;;10.87;9.90;;;25.40;99.90;;;;;;5079955;28;20505;-60
2022/08/14 06:49:25;;;;;;;9.70;8.53;;;25.50;99.90;;;;;;5080071;28;20481;-61
2022/08/14 06:51:53;;;;;;;10.60;9.60;;;25.60;99.90;;;;;;5079844;28;20458;-61
2022/08/14 06:54:19;;;;;;;9.53;7.83;;;25.60;99.90;;;;;;5079872;28;20446;-59
2022/08/14 06:56:48;;;;;;;10.90;8.77;;;25.70;99.90;;;;;;5079353;28;20449;-58
2022/08/14 06:59:15;;;;;;;10.13;9.17;;;25.80;99.90;;;;;;5079626;28;20434;-60
2022/08/14 07:07:20;;;;;;;10.40;8.70;;;26.20;99.90;;;;;;5079289;28;20453;-61
2022/08/14 07:09:46;;;;;;;10.43;9.40;;;26.30;99.90;;;;;;5079560;28;20470;-58
2022/08/14 07:12:15;;;;;;;10.23;9.23;;;26.40;99.90;;;;;;5078687;28;21060;-59
2022/08/14 07:14:42;;;;;;;10.93;9.83;;;26.50;99.90;;;;;;5078913;28;20492;-61
2022/08/14 07:17:09;;;;;;;9.77;8.77;;;26.60;99.90;;;;;;5079035;28;20484;-59
2022/08/14 07:19:36;;;;;;;10.03;9.13;;;26.70;99.90;;;;;;5078446;28;20427;-61
2022/08/14 07:22:02;;;;;;;11.43;9.73;;;26.90;99.90;;;;;;5078282;28;20477;-60
2022/08/14 07:24:29;;;;;;;9.73;8.77;;;27.00;99.90;;;;;;5078642;28;20513;-60
2022/08/14 07:26:56;;;;;;;10.50;9.50;;;27.10;99.90;;;;;;5078340;28;20446;-59
2022/08/14 07:29:24;;;;;;;9.70;8.80;;;27.10;99.90;;;;;;5078556;28;20462;-60
2022/08/14 07:31:51;;;;;;;10.23;9.27;;;27.10;99.90;;;;;;5078843;28;20954;-58
2022/08/14 07:34:18;;;;;;;9.70;8.80;;;27.20;99.90;;;;;;5079092;28;20456;-61
2022/08/14 07:36:45;;;;;;;10.37;9.20;;;27.20;99.90;;;;;;5078648;28;20446;-62
2022/08/14 07:39:12;;;;;;;11.10;9.70;;;27.30;99.90;;;;;;5078402;28;20461;-60
2022/08/14 07:41:38;;;;;;;11.30;10.20;;;27.50;99.90;;;;;;5078348;28;20450;-61
2022/08/14 07:44:05;;;;;;;10.83;9.83;;;27.60;99.90;;;;;;5078355;28;20926;-60
2022/08/14 07:46:34;;;;;;;11.00;10.00;;;27.80;99.90;;;;;;5078316;28;20563;-59
2022/08/14 07:49:00;;;;;;;10.57;9.57;;;27.90;99.90;;;;;;5078025;28;20504;-59
2022/08/14 07:51:27;;;;;;;9.90;8.90;;;28.10;99.90;;;;;;5078350;28;20454;-61
2022/08/14 07:53:55;;;;;;;10.07;9.10;;;28.30;99.90;;;;;;5078596;28;20778;-59
2022/08/14 07:56:22;;;;;;;10.47;8.47;;;28.60;99.90;;;;;;5078105;28;20437;-57
2022/08/14 07:58:49;;;;;;;9.97;9.07;;;29.30;99.90;;;;;;5078227;28;20442;-58
2022/08/14 08:01:17;;;;;;;9.10;8.20;;;30.10;99.90;;;;;;5077623;28;20443;-59
2022/08/14 08:03:48;;;;;;;10.33;9.40;;;31.20;99.90;;;;;;5077921;28;20481;-60
2022/08/14 08:06:16;;;;;;;8.80;8.00;;;32.60;99.90;;;;;;5078417;28;20866;-60
2022/08/14 08:08:51;;;;;;;8.97;8.20;;;33.80;96.30;;;;;;5077532;28;20577;-59
2022/08/14 08:11:19;;;;;;;10.60;9.60;;;35.00;92.20;;;;;;5078537;28;20514;-57
2022/08/14 08:13:48;;;;;;;8.77;8.00;;;36.10;86.00;;;;;;5078945;28;20477;-59
2022/08/14 08:16:19;;;;;;;9.67;8.73;;;37.10;77.80;;;;;;5078816;28;20521;-59
2022/08/14 08:18:48;;;;;;;9.17;8.33;;;38.00;71.30;;;;;;5078645;28;20466;-60
2022/08/14 08:21:15;;;;;;;10.07;8.70;;;38.60;65.50;;;;;;5078294;28;20462;-60
2022/08/14 08:23:42;;;;;;;8.97;8.20;;;38.70;63.10;;;;;;5078235;28;20529;-61
2022/08/14 08:26:09;;;;;;;8.77;7.90;;;39.00;61.00;;;;;;5078607;28;20442;-61
2022/08/14 08:28:39;;;;;;;9.23;8.43;;;39.50;59.40;;;;;;5079092;28;20562;-60
2022/08/14 08:31:06;;;;;;;9.27;8.20;;;40.00;58.50;;;;;;5078488;28;20442;-60
2022/08/14 08:33:35;;;;;;;8.23;7.43;;;40.30;56.20;;;;;;5078854;28;20792;-61
2022/08/14 08:36:06;;;;;;;9.93;8.90;;;40.50;55.30;;;;;;5078695;28;20492;-61
2022/08/14 08:38:33;;;;;;;11.70;8.50;;;40.70;53.90;;;;;;5078411;28;20810;-60
2022/08/14 08:41:01;;;;;;;9.00;8.17;;;40.70;52.90;;;;;;5078267;28;20910;-61
2022/08/14 08:43:30;;;;;;;10.83;8.90;;;40.80;52.60;;;;;;5077791;28;20466;-61
2022/08/14 08:46:01;;;;;;;11.73;9.53;;;40.60;51.90;;;;;;5077457;28;20817;-59
2022/08/14 08:48:30;;;;;;;9.07;8.27;;;40.40;52.20;;;;;;5077907;28;20799;-60
2022/08/14 08:50:59;;;;;;;16.07;9.40;;;40.30;52.10;;;;;;5077513;28;20521;-60
2022/08/14 08:53:32;;;;;;;9.13;8.33;;;40.20;52.00;;;;;;5077819;28;20557;-59
2022/08/14 08:56:00;;;;;;;8.77;8.07;;;40.00;51.50;;;;;;5077629;28;20521;-59
2022/08/14 08:58:27;;;;;;;8.10;7.43;;;39.70;51.80;;;;;;5077455;28;20462;-60
2022/08/14 09:00:56;;;;;;;8.13;7.53;;;39.50;52.10;;;;;;5077414;28;20470;-62
2022/08/14 09:03:25;;;;;;;9.30;8.50;;;39.30;52.40;;;;;;5077195;28;20504;-61
2022/08/14 09:05:54;;;;;;;9.00;8.17;;;39.00;52.30;;;;;;5077611;28;20450;-61
2022/08/14 09:08:24;;;;;;;9.30;8.40;;;38.90;52.90;;;;;;5077630;28;20471;-62
2022/08/14 09:10:53;;;;;;;8.23;7.53;;;38.70;52.70;;;;;;5078592;28;20537;-61
2022/08/14 09:13:24;;;;;;;7.67;7.03;;;38.60;52.80;;;;;;5077675;28;20474;-63
2022/08/14 09:15:52;;;;;;;13.43;11.80;;;38.60;53.20;;;;;;5078127;28;20438;-61
2022/08/14 09:18:21;;;;;;;14.40;12.50;;;38.50;53.90;;;;;;5077614;28;20470;-59
2022/08/14 09:20:50;;;;;;;13.90;11.80;;;38.50;53.50;;;;;;5077100;28;20442;-61
2022/08/14 09:23:17;;;;;;;13.90;11.27;;;38.50;53.20;;;;;;5076960;28;20485;-59
2022/08/14 09:25:46;;;;;;;7.80;7.20;;;38.70;52.70;;;;;;5078358;28;20478;-59
2022/08/14 09:28:16;;;;;;;9.57;7.30;;;39.10;51.30;;;;;;5081770;28;20502;-62
2022/08/14 09:30:45;;;;;;;7.60;6.80;;;39.30;51.50;;;;;;5081218;28;20478;-61
2022/08/14 09:33:29;;;;;;;11.07;7.50;;;39.50;50.60;;;;;;5080462;28;20573;-60
2022/08/14 09:36:30;;;;;;;10.87;7.50;;;39.60;50.40;;;;;;5081039;28;20449;-57
2022/08/14 09:39:08;;;;;;;8.40;7.60;;;39.70;50.10;;;;;;5080873;28;20466;-61
2022/08/14 09:41:58;;;;;;;8.50;7.50;;;39.70;49.80;;;;;;5080841;28;20438;-61
2022/08/14 09:44:41;;;;;;;8.13;7.33;;;39.60;49.90;;;;;;5079853;28;20470;-63
2022/08/14 09:47:09;;;;;;;9.07;7.77;;;39.30;50.80;;;;;;5080169;28;20470;-60
2022/08/14 09:49:38;;;;;;;8.93;8.03;;;39.10;50.70;;;;;;5080044;28;20567;-60
2022/08/14 09:52:09;;;;;;;8.60;6.80;;;39.10;50.90;;;;;;5079974;28;20442;-60
2022/08/14 09:54:41;;;;;;;7.50;6.80;;;39.10;50.80;;;;;;5080368;28;20791;-60
2022/08/14 09:57:10;;;;;;;9.60;7.33;;;39.30;50.60;;;;;;5080101;28;20427;-61
2022/08/14 09:59:45;;;;;;;7.90;7.30;;;39.50;50.10;;;;;;5080100;28;20450;-61
2022/08/14 10:02:26;;;;;;;8.03;7.33;;;39.70;49.80;;;;;;5080558;28;20925;-63
2022/08/14 10:05:01;;;;;;;8.27;6.50;;;39.90;49.30;;;;;;5079779;28;20515;-61
2022/08/14 10:07:32;;;;;;;6.30;5.80;;;39.50;48.90;;;;;;5080179;28;20473;-60
2022/08/14 10:10:00;;;;;;;6.20;5.63;;;39.50;48.00;;;;;;5080126;28;20489;-59
2022/08/14 10:12:42;;;;;;;6.30;5.90;;;39.50;47.60;;;;;;5080609;28;20537;-61
2022/08/14 10:15:17;;;;;;;7.37;6.63;;;39.70;47.20;;;;;;5080167;28;20470;-61
2022/08/14 10:17:45;;;;;;;5.70;5.17;;;39.50;47.70;;;;;;5080297;28;20434;-62
2022/08/14 10:20:14;;;;;;;7.10;6.50;;;39.50;47.30;;;;;;5080576;28;20458;-60
2022/08/14 10:22:41;;;;;;;7.37;5.37;;;39.60;46.90;;;;;;5080535;28;20457;-62
2022/08/14 10:25:13;;;;;;;5.80;5.40;;;39.70;47.00;;;;;;5080060;28;20446;-62
2022/08/14 10:27:45;;;;;;;6.17;5.23;;;39.70;46.70;;;;;;5080265;28;20434;-62
2022/08/14 10:30:19;;;;;;;5.60;5.20;;;39.70;46.10;;;;;;5080076;28;20466;-62
2022/08/14 10:32:47;;;;;;;5.50;5.00;;;39.70;46.10;;;;;;5080020;28;20805;-61
2022/08/14 10:35:16;;;;;;;5.33;4.93;;;39.70;45.90;;;;;;5080154;28;20490;-61
2022/08/14 10:37:48;;;;;;;5.40;5.03;;;39.70;45.70;;;;;;5078299;28;20620;-60
2022/08/14 10:40:25;;;;;;;10.57;9.77;;;39.50;45.90;;;;;;5079178;28;20423;-56
2022/08/14 10:42:52;;;;;;;7.80;6.73;;;39.40;46.30;;;;;;5078634;28;20441;-60
2022/08/14 10:45:22;;;;;;;6.70;5.20;;;39.20;46.80;;;;;;5078957;28;20442;-58
2022/08/14 10:47:51;;;;;;;9.40;6.37;;;38.90;46.50;;;;;;5078625;28;20442;-59
2022/08/14 10:50:29;;;;;;;7.17;5.80;;;38.60;47.30;;;;;;5078305;28;20481;-56
2022/08/14 10:52:57;;;;;;;6.70;6.20;;;38.30;48.50;;;;;;5091831;28;20427;-58
2022/08/14 10:55:30;;;;;;;6.30;5.70;;;38.10;48.60;;;;;;5091574;28;20442;-61
2022/08/14 10:57:57;;;;;;;6.80;6.30;;;37.90;49.00;;;;;;5091452;28;20423;-61
2022/08/14 11:00:28;;;;;;;6.10;5.70;;;37.60;48.80;;;;;;5090661;28;20438;-59
2022/08/14 11:03:01;;;;;;;5.40;5.00;;;37.30;49.80;;;;;;5090992;28;20453;-60
2022/08/14 11:05:40;;;;;;;6.20;5.70;;;37.10;50.10;;;;;;5090757;28;20449;-59
2022/08/14 11:08:09;;;;;;;6.43;5.93;;;36.90;50.30;;;;;;5091459;28;20465;-60
2022/08/14 11:10:43;;;;;;;6.57;6.00;;;36.80;51.00;;;;;;5090507;28;20509;-62
2022/08/14 11:13:17;;;;;;;12.43;11.27;;;36.50;50.20;;;;;;5090725;28;20450;-59
2022/08/14 11:15:47;;;;;;;11.53;10.43;;;36.30;50.80;;;;;;5090597;28;20462;-60
2022/08/14 11:18:14;;;;;;;12.57;6.37;;;36.30;50.80;;;;;;5091044;28;20443;-60
2022/08/14 11:20:53;;;;;;;8.27;7.53;;;36.20;51.20;;;;;;5089554;28;20473;-58
2022/08/14 11:23:21;;;;;;;6.80;6.20;;;36.20;51.70;;;;;;5090486;28;20434;-58
2022/08/14 11:25:49;;;;;;;6.47;5.83;;;36.30;51.20;;;;;;5090396;28;20477;-59
2022/08/14 11:28:19;;;;;;;5.50;5.10;;;36.20;50.60;;;;;;5090085;28;20814;-60
2022/08/14 11:30:49;;;;;;;6.50;5.90;;;36.20;50.20;;;;;;5090358;28;20528;-59
2022/08/14 11:33:16;;;;;;;7.43;6.83;;;36.20;50.90;;;;;;5090626;28;20528;-60
2022/08/14 11:35:48;;;;;;;10.03;6.20;;;36.10;50.70;;;;;;5091398;28;20450;-60
2022/08/14 11:38:16;;;;;;;6.17;5.67;;;36.20;49.80;;;;;;5091117;28;20533;-62
2022/08/14 11:40:44;;;;;;;11.13;6.53;;;36.00;50.30;;;;;;5090896;28;20466;-60
2022/08/14 11:43:11;;;;;;;7.23;6.43;;;36.00;50.00;;;;;;5089867;28;20445;-60
2022/08/14 11:45:40;;;;;;;5.70;5.20;;;35.90;49.90;;;;;;5088415;28;20454;-58
2022/08/14 11:48:21;;;;;;;14.50;8.97;;;35.70;50.60;;;;;;5090456;28;20502;-60
2022/08/14 11:50:49;;;;;;;8.30;6.30;;;35.50;50.70;;;;;;5089823;28;20531;-58
2022/08/14 11:53:24;;;;;;;6.43;5.83;;;35.50;51.00;;;;;;5089117;28;20986;-61
2022/08/14 11:55:56;;;;;;;7.43;6.20;;;35.40;51.00;;;;;;5090030;28;20491;-62
2022/08/14 11:58:27;;;;;;;6.67;6.17;;;35.20;50.90;;;;;;5090204;28;20422;-60
2022/08/14 12:01:00;;;;;;;9.83;8.67;;;35.10;50.20;;;;;;5088996;28;20867;-60
2022/08/14 12:03:39;;;;;;;17.73;12.03;;;34.90;50.40;;;;;;5090006;28;20443;-59
2022/08/14 12:06:08;;;;;;;11.10;9.13;;;34.80;51.00;;;;;;5089960;28;20453;-60
2022/08/14 12:08:36;;;;;;;12.73;10.17;;;34.80;51.30;;;;;;5089144;28;20454;-59
2022/08/14 12:11:04;;;;;;;29.93;17.47;;;34.70;50.90;;;;;;5089918;28;20508;-59
2022/08/14 12:13:32;;;;;;;14.73;6.00;;;34.60;51.70;;;;;;5089541;28;20511;-60
2022/08/14 12:16:02;;;;;;;31.37;19.33;;;34.60;52.10;;;;;;5089085;28;20451;-61
2022/08/14 12:18:31;;;;;;;41.67;22.77;;;34.50;52.20;;;;;;5089656;28;20442;-60
2022/08/14 12:21:10;;;;;;;70.90;41.37;;;34.50;52.40;;;;;;5089363;28;20540;-59
2022/08/14 12:23:36;;;;;;;33.23;22.30;;;34.40;52.20;;;;;;5089867;28;20470;-61
2022/08/14 12:26:04;;;;;;;33.70;23.47;;;34.50;52.60;;;;;;5088974;28;20446;-61
2022/08/14 12:28:31;;;;;;;25.43;15.53;;;34.40;52.60;;;;;;5089178;28;20510;-60
2022/08/14 12:30:58;;;;;;;10.53;8.73;;;34.30;52.20;;;;;;5088149;28;20516;-59
2022/08/14 12:33:28;;;;;;;6.93;6.40;;;34.20;52.50;;;;;;5089402;28;20480;-59
2022/08/14 12:35:59;;;;;;;8.83;7.93;;;34.20;52.50;;;;;;5089296;28;20478;-59
2022/08/14 12:38:36;;;;;;;8.30;7.50;;;34.20;52.70;;;;;;5090671;28;20431;-59
2022/08/14 12:41:08;;;;;;;14.33;12.83;;;34.20;52.70;;;;;;5090435;28;20532;-59
2022/08/14 12:43:46;;;;;;;8.60;7.70;;;34.20;53.30;;;;;;5090831;28;20451;-60
2022/08/14 12:46:22;;;;;;;8.90;8.20;;;34.30;53.20;;;;;;5091356;28;20468;-58
2022/08/14 12:48:49;;;;;;;7.40;6.70;;;34.30;52.70;;;;;;5091895;28;20442;-61
2022/08/14 12:51:19;;;;;;;7.63;7.00;;;34.30;52.40;;;;;;5091713;28;20489;-59
2022/08/14 12:53:49;;;;;;;6.73;6.10;;;34.30;52.40;;;;;;5089103;28;20446;-59
2022/08/14 12:56:18;;;;;;;7.90;7.20;;;34.20;52.30;;;;;;5091082;28;20891;-60
2022/08/14 12:58:50;;;;;;;7.10;6.40;;;34.20;52.30;;;;;;5090767;28;20549;-61
2022/08/14 13:01:22;;;;;;;10.53;9.30;;;34.30;51.80;;;;;;5092513;28;20438;-59
2022/08/14 13:03:51;;;;;;;8.40;7.60;;;34.30;52.40;;;;;;5094866;28;20454;-60
2022/08/14 13:06:19;;;;;;;9.27;6.60;;;34.30;52.50;;;;;;5094462;28;20446;-61
2022/08/14 13:08:51;;;;;;;7.13;6.43;;;34.20;51.60;;;;;;5093809;28;20449;-61
2022/08/14 13:11:18;;;;;;;6.80;6.20;;;34.30;51.30;;;;;;5095039;28;20482;-58